createdAt,value
2023-05-08T00:01:34.205Z,5.03
2023-05-08T00:04:36.727Z,4.80
2023-05-08T00:07:39.190Z,5.03
2023-05-08T00:10:41.582Z,4.57
2023-05-08T00:13:43.753Z,5.03
2023-05-08T00:16:46.298Z,4.85
2023-05-08T00:19:48.920Z,4.93
2023-05-08T00:22:51.356Z,4.65
2023-05-08T00:25:53.467Z,5.20
2023-05-08T00:28:56.379Z,4.93
2023-05-08T00:31:58.623Z,5.03
2023-05-08T00:35:01.147Z,4.90
2023-05-08T00:38:03.366Z,5.10
2023-05-08T00:41:05.878Z,5.37
2023-05-08T00:44:08.365Z,5.07
2023-05-08T00:47:11.051Z,4.80
2023-05-08T00:50:13.889Z,4.95
2023-05-08T00:53:17.543Z,5.20
2023-05-08T00:56:20.824Z,4.57
2023-05-08T00:59:24.668Z,5.50
2023-05-08T01:02:27.475Z,5.20
2023-05-08T01:05:30.073Z,4.55
2023-05-08T01:08:32.625Z,5.28
2023-05-08T01:11:44.821Z,5.35
2023-05-08T01:14:56.589Z,5.03
2023-05-08T01:18:10.913Z,5.50
2023-05-08T01:21:47.535Z,5.95
2023-05-08T01:25:23.993Z,5.32
2023-05-08T01:28:59.528Z,5.72
2023-05-08T01:32:16.036Z,5.35
2023-05-08T01:35:27.888Z,5.90
2023-05-08T01:38:51.820Z,6.00
2023-05-08T01:42:01.216Z,5.37
2023-05-08T01:45:13.868Z,5.68
2023-05-08T01:48:24.641Z,5.30
2023-05-08T01:51:31.039Z,5.37
2023-05-08T01:54:43.214Z,5.50
2023-05-08T01:57:49.177Z,5.82
2023-05-08T02:00:53.051Z,5.68
2023-05-08T02:03:57.357Z,5.55
2023-05-08T02:07:00.938Z,5.37
2023-05-08T02:10:04.534Z,5.65
2023-05-08T02:13:08.797Z,5.70
2023-05-08T02:16:12.638Z,5.90
2023-05-08T02:19:16.248Z,5.90
2023-05-08T02:22:21.488Z,5.75
2023-05-08T02:25:25.518Z,5.45
2023-05-08T02:28:29.918Z,6.15
2023-05-08T02:31:35.528Z,5.70
2023-05-08T02:34:41.028Z,5.60
2023-05-08T02:37:52.134Z,5.90
2023-05-08T02:40:57.533Z,5.68
2023-05-08T02:44:01.078Z,5.53
2023-05-08T02:47:12.320Z,6.10
2023-05-08T02:50:43.491Z,5.97
2023-05-08T02:53:52.201Z,5.20
2023-05-08T02:56:59.934Z,5.10
2023-05-08T03:00:14.186Z,5.55
2023-05-08T03:03:49.892Z,5.68
2023-05-08T03:06:56.908Z,5.60
2023-05-08T03:10:03.952Z,5.32
2023-05-08T03:13:09.407Z,5.55
2023-05-08T03:16:17.542Z,5.72
2023-05-08T03:19:27.306Z,5.90
2023-05-08T03:22:32.530Z,6.20
2023-05-08T03:25:35.993Z,6.12
2023-05-08T03:28:39.590Z,5.95
2023-05-08T03:31:43.664Z,5.70
2023-05-08T03:34:47.636Z,6.47
2023-05-08T03:37:50.241Z,5.85
2023-05-08T03:40:53.174Z,6.00
2023-05-08T03:43:56.227Z,6.25
2023-05-08T03:47:00.287Z,6.07
2023-05-08T03:50:03.153Z,6.60
2023-05-08T03:53:05.688Z,6.07
2023-05-08T03:56:08.593Z,6.22
2023-05-08T03:59:29.967Z,6.35
2023-05-08T04:02:47.508Z,6.32
2023-05-08T04:05:56.590Z,7.12
2023-05-08T04:09:05.796Z,7.18
2023-05-08T04:12:32.344Z,7.32
2023-05-08T04:15:39.325Z,7.22
2023-05-08T04:18:46.288Z,7.55
2023-05-08T04:21:51.055Z,7.55
2023-05-08T04:24:59.261Z,6.85
2023-05-08T04:28:02.586Z,7.10
2023-05-08T04:31:06.042Z,6.75
2023-05-08T04:34:09.325Z,7.30
2023-05-08T04:37:26.639Z,7.12
2023-05-08T04:40:29.427Z,4.15
2023-05-08T04:43:32.425Z,5.10
2023-05-08T04:46:35.036Z,3.17
2023-05-08T04:49:37.807Z,2.90
2023-05-08T04:52:39.962Z,2.53
2023-05-08T04:55:43.400Z,2.45
2023-05-08T04:58:45.818Z,2.70
2023-05-08T05:01:48.819Z,2.42
2023-05-08T05:04:51.247Z,2.53
2023-05-08T05:07:53.768Z,2.30
2023-05-08T05:10:56.078Z,2.25
2023-05-08T05:13:58.838Z,2.10
2023-05-08T05:17:01.417Z,2.08
2023-05-08T05:20:06.166Z,2.30
2023-05-08T05:23:08.456Z,2.25
2023-05-08T05:26:11.384Z,2.10
2023-05-08T05:29:13.852Z,2.67
2023-05-08T05:32:16.817Z,2.35
2023-05-08T05:35:19.048Z,2.40
2023-05-08T05:38:21.780Z,3.30
2023-05-08T05:41:24.372Z,2.58
2023-05-08T05:44:27.457Z,2.45
2023-05-08T05:47:30.069Z,3.22
2023-05-08T05:50:33.015Z,2.20
2023-05-08T05:53:35.453Z,2.05
2023-05-08T05:56:38.132Z,1.75
2023-05-08T05:59:41.016Z,1.95
2023-05-08T06:02:44.049Z,1.70
2023-05-08T06:05:47.616Z,2.17
2023-05-08T06:08:49.853Z,2.15
2023-05-08T06:11:52.717Z,1.90
2023-05-08T06:14:55.515Z,1.92
2023-05-08T06:17:58.179Z,2.20
2023-05-08T06:21:00.741Z,2.08
2023-05-08T06:24:03.650Z,1.80
2023-05-08T06:27:05.890Z,1.60
2023-05-08T06:30:10.548Z,1.83
2023-05-08T06:33:12.697Z,2.05
2023-05-08T06:36:15.696Z,1.55
2023-05-08T06:39:18.346Z,1.95
2023-05-08T06:42:21.077Z,1.58
2023-05-08T06:45:23.244Z,1.77
2023-05-08T06:48:29.020Z,2.05
2023-05-08T06:51:31.523Z,1.98
2023-05-08T06:54:34.062Z,1.60
2023-05-08T06:57:36.294Z,1.83
2023-05-08T07:00:38.852Z,1.80
2023-05-08T07:03:41.687Z,1.70
2023-05-08T07:06:44.152Z,1.77
2023-05-08T07:09:46.310Z,1.98
2023-05-08T07:12:49.660Z,1.55
2023-05-08T07:15:52.321Z,1.55
2023-05-08T07:18:54.950Z,1.85
2023-05-08T07:21:57.192Z,2.15
2023-05-08T07:24:59.832Z,1.90
2023-05-08T07:28:02.049Z,1.73
2023-05-08T07:31:09.041Z,1.75
2023-05-08T07:34:11.285Z,1.45
2023-05-08T07:37:14.130Z,1.60
2023-05-08T07:40:16.488Z,1.80
2023-05-08T07:43:18.899Z,1.65
2023-05-08T07:46:21.793Z,1.90
2023-05-08T07:49:24.527Z,2.25
2023-05-08T07:52:26.880Z,1.60
2023-05-08T07:55:29.551Z,5.05
2023-05-08T07:58:31.789Z,1.42
2023-05-08T08:01:34.392Z,1.40
2023-05-08T08:04:36.851Z,1.55
2023-05-08T08:07:39.243Z,1.42
2023-05-08T08:10:41.689Z,1.60
2023-05-08T08:13:43.881Z,1.33
2023-05-08T08:16:46.733Z,1.40
2023-05-08T08:19:48.971Z,1.73
2023-05-08T08:22:51.524Z,1.30
2023-05-08T08:25:54.269Z,1.40
2023-05-08T08:28:56.694Z,1.23
2023-05-08T08:31:58.997Z,1.60
2023-05-08T08:35:02.079Z,1.35
2023-05-08T08:38:04.284Z,1.45
2023-05-08T08:41:07.181Z,1.58
2023-05-08T08:44:09.668Z,1.23
2023-05-08T08:47:14.769Z,1.37
2023-05-08T08:50:20.055Z,1.70
2023-05-08T08:53:27.498Z,1.40
2023-05-08T08:56:31.313Z,1.20
2023-05-08T08:59:34.784Z,1.20
2023-05-08T09:02:37.113Z,1.17
2023-05-08T09:05:40.161Z,1.27
2023-05-08T09:08:42.693Z,1.05
2023-05-08T09:11:46.947Z,1.00
2023-05-08T09:14:50.163Z,1.00
2023-05-08T09:17:52.582Z,0.93
2023-05-08T09:20:55.069Z,1.17
2023-05-08T09:24:02.595Z,1.08
2023-05-08T09:27:20.756Z,0.90
2023-05-08T09:30:23.228Z,0.80
2023-05-08T09:33:27.664Z,0.70
2023-05-08T09:36:32.048Z,0.57
2023-05-08T09:39:34.691Z,0.82
2023-05-08T09:42:40.332Z,0.70
2023-05-08T09:45:42.723Z,0.70
2023-05-08T09:48:47.929Z,0.60
2023-05-08T09:55:09.198Z,0.50
2023-05-08T09:58:11.484Z,0.47
2023-05-08T10:01:32.629Z,0.55
2023-05-08T10:04:36.627Z,0.30
2023-05-08T10:07:38.885Z,0.60
2023-05-08T10:10:41.459Z,0.88
2023-05-08T10:13:47.232Z,0.57
2023-05-08T10:16:53.194Z,0.32
2023-05-08T10:20:00.250Z,0.70
2023-05-08T10:23:03.624Z,0.50
2023-05-08T10:26:23.536Z,0.60
2023-05-08T10:29:31.211Z,0.55
2023-05-08T10:32:44.197Z,0.50
2023-05-08T10:35:46.766Z,0.50
2023-05-08T10:38:50.243Z,0.50
2023-05-08T10:41:53.007Z,0.52
2023-05-08T10:44:56.190Z,0.60
2023-05-08T10:48:17.454Z,0.55
2023-05-08T10:51:42.612Z,0.40
2023-05-08T10:55:09.407Z,0.52
2023-05-08T10:58:12.882Z,0.43
2023-05-08T11:01:16.664Z,0.50
2023-05-08T11:04:24.934Z,0.43
2023-05-08T11:07:51.019Z,0.60
2023-05-08T11:11:02.136Z,0.40
2023-05-08T11:14:07.656Z,0.45
2023-05-08T11:17:10.945Z,0.43
2023-05-08T11:20:13.731Z,0.60
2023-05-08T11:23:27.290Z,0.45
2023-05-08T11:26:42.138Z,0.47
2023-05-08T11:29:45.108Z,0.50
2023-05-08T11:33:14.425Z,0.43
2023-05-08T11:36:22.972Z,0.40
2023-05-08T11:39:25.468Z,0.60
2023-05-08T11:42:27.580Z,0.50
2023-05-08T11:45:30.901Z,0.50
2023-05-08T11:48:34.070Z,0.70
2023-05-08T11:51:38.432Z,0.40
2023-05-08T11:54:40.696Z,0.50
2023-05-08T11:57:43.112Z,0.65
2023-05-08T12:00:47.337Z,0.30
2023-05-08T12:04:00.587Z,0.60
2023-05-08T12:07:02.933Z,0.30
2023-05-08T12:10:06.129Z,0.60
2023-05-08T12:13:21.438Z,0.57
2023-05-08T12:16:25.417Z,0.60
2023-05-08T12:19:27.601Z,0.60
2023-05-08T12:22:30.169Z,0.90
2023-05-08T12:25:32.425Z,0.90
2023-05-08T12:28:34.883Z,1.05
2023-05-08T12:31:37.796Z,0.47
2023-05-08T12:34:40.398Z,0.82
2023-05-08T12:37:42.835Z,0.55
2023-05-08T12:40:49.122Z,0.43
2023-05-08T12:43:51.399Z,0.70
2023-05-08T12:46:55.932Z,0.47
2023-05-08T12:49:58.293Z,0.70
2023-05-08T12:53:04.939Z,0.47
2023-05-08T12:56:07.639Z,0.70
2023-05-08T12:59:10.204Z,0.60
2023-05-08T13:02:17.571Z,0.50
2023-05-08T13:05:23.660Z,0.50
2023-05-08T13:08:32.552Z,0.57
2023-05-08T13:11:35.123Z,0.50
2023-05-08T13:14:37.308Z,0.75
2023-05-08T13:17:39.933Z,1.35
2023-05-08T13:20:43.309Z,0.45
2023-05-08T13:23:46.044Z,0.57
2023-05-08T13:26:48.276Z,0.70
2023-05-08T13:29:50.780Z,0.70
2023-05-08T13:32:53.783Z,0.88
2023-05-08T13:35:56.275Z,0.60
2023-05-08T13:38:58.406Z,0.80
2023-05-08T13:42:00.872Z,0.70
2023-05-08T13:45:04.886Z,0.57
2023-05-08T13:48:07.427Z,0.82
2023-05-08T13:51:09.570Z,1.00
2023-05-08T13:54:11.970Z,0.80
2023-05-08T13:57:14.300Z,0.73
2023-05-08T14:00:17.148Z,0.40
2023-05-08T14:03:19.245Z,0.40
2023-05-08T14:06:21.756Z,0.62
2023-05-08T14:09:24.049Z,0.77
2023-05-08T14:12:26.659Z,0.70
2023-05-08T14:15:36.516Z,0.70
2023-05-08T14:18:40.345Z,0.60
2023-05-08T14:21:43.852Z,1.00
2023-05-08T14:24:46.346Z,0.50
2023-05-08T14:27:48.493Z,0.45
2023-05-08T14:30:50.996Z,0.82
2023-05-08T14:33:53.154Z,1.00
2023-05-08T14:36:55.755Z,0.70
2023-05-08T14:39:59.374Z,0.60
2023-05-08T14:43:01.848Z,0.70
2023-05-08T14:46:04.158Z,0.70
2023-05-08T14:49:06.714Z,1.05
2023-05-08T14:52:08.925Z,0.70
2023-05-08T14:55:12.137Z,0.60
2023-05-08T14:58:14.520Z,0.77
2023-05-08T15:01:17.534Z,0.60
2023-05-08T15:04:19.770Z,0.80
2023-05-08T15:07:22.318Z,0.75
2023-05-08T15:10:24.579Z,0.80
2023-05-08T15:13:27.293Z,1.05
2023-05-08T15:16:30.121Z,0.80
2023-05-08T15:19:32.556Z,0.60
2023-05-08T15:22:34.818Z,0.50
2023-05-08T15:25:37.262Z,1.00
2023-05-08T15:28:41.237Z,0.75
2023-05-08T15:31:43.690Z,0.98
2023-05-08T15:34:45.893Z,0.70
2023-05-08T15:37:48.349Z,0.88
2023-05-08T15:40:50.539Z,1.00
2023-05-08T15:43:53.099Z,0.95
2023-05-08T15:46:55.206Z,0.93
2023-05-08T15:49:57.614Z,0.85
2023-05-08T15:53:00.078Z,0.93
2023-05-08T15:56:05.703Z,1.00
2023-05-08T15:59:07.860Z,0.90
2023-05-08T16:02:10.432Z,1.02
2023-05-08T16:05:13.072Z,0.80
2023-05-08T16:08:15.555Z,0.93
2023-05-08T16:11:18.092Z,1.00
2023-05-08T16:14:20.351Z,1.40
2023-05-08T16:17:23.005Z,1.00
2023-05-08T16:20:25.497Z,0.80
2023-05-08T16:23:28.058Z,1.00
2023-05-08T16:26:30.219Z,1.05
2023-05-08T16:29:32.605Z,1.17
2023-05-08T16:32:34.738Z,1.00
2023-05-08T16:35:37.288Z,1.20
2023-05-08T16:38:39.483Z,1.37
2023-05-08T16:41:41.993Z,1.27
2023-05-08T16:44:44.359Z,1.42
2023-05-08T16:47:46.808Z,1.45
2023-05-08T16:50:49.001Z,1.40
2023-05-08T16:53:51.487Z,1.60
2023-05-08T16:56:53.691Z,1.50
2023-05-08T16:59:56.253Z,1.55
2023-05-08T17:02:58.586Z,1.83
2023-05-08T17:06:05.787Z,1.65
2023-05-08T17:09:08.012Z,1.50
2023-05-08T17:12:10.690Z,2.00
2023-05-08T17:15:13.129Z,1.62
2023-05-08T17:18:15.937Z,2.03
2023-05-08T17:21:18.117Z,1.30
2023-05-08T17:24:20.579Z,1.90
2023-05-08T17:27:22.779Z,2.25
2023-05-08T17:30:26.336Z,1.90
2023-05-08T17:33:28.898Z,2.03
2023-05-08T17:36:31.343Z,2.05
2023-05-08T17:39:33.472Z,1.80
2023-05-08T17:42:36.120Z,2.50
2023-05-08T17:45:38.568Z,1.98
2023-05-08T17:48:41.085Z,1.92
2023-05-08T17:51:43.393Z,2.08
2023-05-08T17:54:45.967Z,1.90
2023-05-08T17:57:48.199Z,2.10
2023-05-08T18:00:50.822Z,1.92
2023-05-08T18:03:53.755Z,1.95
2023-05-08T18:06:56.007Z,2.10
2023-05-08T18:09:58.411Z,2.15
2023-05-08T18:13:00.643Z,2.37
2023-05-08T18:16:03.232Z,2.25
2023-05-08T18:19:05.458Z,2.20
2023-05-08T18:22:08.101Z,2.37
2023-05-08T18:25:10.993Z,2.28
2023-05-08T18:28:13.436Z,3.47
2023-05-08T18:31:16.549Z,2.33
2023-05-08T18:34:19.087Z,2.40
2023-05-08T18:37:21.257Z,2.50
2023-05-08T18:40:23.702Z,2.78
2023-05-08T18:43:25.920Z,2.60
2023-05-08T18:46:28.448Z,2.58
2023-05-08T18:49:31.192Z,2.78
2023-05-08T18:52:34.162Z,2.90
2023-05-08T18:55:36.841Z,3.40
2023-05-08T18:58:39.465Z,2.85
2023-05-08T19:01:41.596Z,3.20
2023-05-08T19:04:44.205Z,3.30
2023-05-08T19:07:46.426Z,3.05
2023-05-08T19:10:48.897Z,3.40
2023-05-08T19:13:51.805Z,2.90
2023-05-08T19:16:56.947Z,2.90
2023-05-08T19:20:00.465Z,3.08
2023-05-08T19:23:02.942Z,2.85
2023-05-08T19:26:05.288Z,3.25
2023-05-08T19:29:07.738Z,2.83
2023-05-08T19:32:09.903Z,3.08
2023-05-08T19:35:12.483Z,3.40
2023-05-08T19:38:15.271Z,3.10
2023-05-08T19:41:17.948Z,2.90
2023-05-08T19:44:20.160Z,3.62
2023-05-08T19:47:22.678Z,3.08
2023-05-08T19:50:25.003Z,3.10
2023-05-08T19:53:27.430Z,3.00
2023-05-08T19:56:29.609Z,3.10
2023-05-08T19:59:32.055Z,2.90
2023-05-08T20:02:34.420Z,2.85
2023-05-08T20:05:36.875Z,3.10
2023-05-08T20:08:39.146Z,2.80
2023-05-08T20:11:41.652Z,2.95
2023-05-08T20:14:43.948Z,3.17
2023-05-08T20:17:46.397Z,3.17
2023-05-08T20:20:48.662Z,4.10
2023-05-08T20:23:51.082Z,3.25
2023-05-08T20:26:56.067Z,3.10
2023-05-08T20:29:58.794Z,3.00
2023-05-08T20:33:04.802Z,2.90
2023-05-08T20:36:07.730Z,2.92
2023-05-08T20:39:09.844Z,2.80
2023-05-08T20:42:12.609Z,3.30
2023-05-08T20:45:15.167Z,3.42
2023-05-08T20:48:17.694Z,3.03
2023-05-08T20:51:19.842Z,3.08
2023-05-08T20:54:22.379Z,3.15
2023-05-08T20:57:25.158Z,2.80
2023-05-08T21:00:27.716Z,3.42
2023-05-08T21:03:29.871Z,3.00
2023-05-08T21:06:32.254Z,3.10
2023-05-08T21:09:34.455Z,2.50
2023-05-08T21:12:36.961Z,2.92
2023-05-08T21:15:39.125Z,2.92
2023-05-08T21:18:41.569Z,3.08
2023-05-08T21:21:44.869Z,2.67
2023-05-08T21:24:47.340Z,3.00
2023-05-08T21:27:49.752Z,3.17
2023-05-08T21:30:52.184Z,2.92
2023-05-08T21:33:54.305Z,2.83
2023-05-08T21:36:56.738Z,3.58
2023-05-08T21:39:58.971Z,2.95
2023-05-08T21:43:01.376Z,3.55
2023-05-08T21:46:05.470Z,3.00
2023-05-08T21:49:08.097Z,3.15
2023-05-08T21:52:10.259Z,3.08
2023-05-08T21:55:12.925Z,3.53
2023-05-08T21:58:15.298Z,3.10
2023-05-08T22:01:17.819Z,3.45
2023-05-08T22:04:20.725Z,3.30
2023-05-08T22:07:22.949Z,3.55
2023-05-08T22:10:25.872Z,3.40
2023-05-08T22:13:30.450Z,3.30
2023-05-08T22:16:32.962Z,3.20
2023-05-08T22:19:35.348Z,3.17
2023-05-08T22:22:37.838Z,3.22
2023-05-08T22:25:39.968Z,3.20
2023-05-08T22:28:42.431Z,3.00
2023-05-08T22:31:45.577Z,3.05
2023-05-08T22:34:49.864Z,3.37
2023-05-08T22:37:52.862Z,3.00
2023-05-08T22:40:57.391Z,3.00
2023-05-08T22:43:59.692Z,3.10
2023-05-08T22:47:02.546Z,3.20
2023-05-08T22:50:08.499Z,2.83
2023-05-08T22:53:11.011Z,3.60
2023-05-08T22:56:14.648Z,3.17
2023-05-08T22:59:17.105Z,3.17
2023-05-08T23:02:19.337Z,2.95
2023-05-08T23:05:22.468Z,3.20
2023-05-08T23:08:24.675Z,3.47
2023-05-08T23:11:27.615Z,3.40
2023-05-08T23:14:29.860Z,3.40
2023-05-08T23:17:32.313Z,3.33
2023-05-08T23:20:34.481Z,3.60
2023-05-08T23:23:37.054Z,3.37
2023-05-08T23:26:41.880Z,3.47
2023-05-08T23:29:44.551Z,3.42
2023-05-08T23:32:46.906Z,3.47
2023-05-08T23:35:49.432Z,3.22
2023-05-08T23:38:51.672Z,3.47
2023-05-08T23:41:54.506Z,3.40
2023-05-08T23:44:56.608Z,3.30
2023-05-08T23:47:59.130Z,3.40
2023-05-08T23:51:01.395Z,3.30
2023-05-08T23:54:04.645Z,3.28
2023-05-08T23:57:06.891Z,3.45
